sensor_id;sensor_type;location;lat;lon;timestamp;P1;durP1;ratioP1;P2;durP2;ratioP2
29382;SDS011;16365;51.598;7.668;2023-05-14T00:00:27;21.27;;;13.63;;
29382;SDS011;16365;51.598;7.668;2023-05-14T00:02:54;21.10;;;13.70;;
29382;SDS011;16365;51.598;7.668;2023-05-14T00:05:21;19.25;;;13.85;;
29382;SDS011;16365;51.598;7.668;2023-05-14T00:07:48;21.73;;;13.82;;
29382;SDS011;16365;51.598;7.668;2023-05-14T00:10:14;29.15;;;14.88;;
29382;SDS011;16365;51.598;7.668;2023-05-14T00:12:42;22.35;;;15.27;;
29382;SDS011;16365;51.598;7.668;2023-05-14T00:15:09;23.33;;;15.82;;
29382;SDS011;16365;51.598;7.668;2023-05-14T00:17:37;24.05;;;15.48;;
29382;SDS011;16365;51.598;7.668;2023-05-14T00:20:04;21.85;;;15.50;;
29382;SDS011;16365;51.598;7.668;2023-05-14T00:22:32;23.33;;;15.63;;
29382;SDS011;16365;51.598;7.668;2023-05-14T00:24:59;21.67;;;15.02;;
29382;SDS011;16365;51.598;7.668;2023-05-14T00:27:26;22.67;;;14.50;;
29382;SDS011;16365;51.598;7.668;2023-05-14T00:29:52;25.58;;;15.45;;
29382;SDS011;16365;51.598;7.668;2023-05-14T00:32:19;22.67;;;15.10;;
29382;SDS011;16365;51.598;7.668;2023-05-14T00:34:45;18.35;;;14.05;;
29382;SDS011;16365;51.598;7.668;2023-05-14T00:37:12;22.08;;;13.82;;
29382;SDS011;16365;51.598;7.668;2023-05-14T00:39:38;20.65;;;13.90;;
29382;SDS011;16365;51.598;7.668;2023-05-14T00:42:05;23.38;;;13.32;;
29382;SDS011;16365;51.598;7.668;2023-05-14T00:44:32;24.73;;;13.57;;
29382;SDS011;16365;51.598;7.668;2023-05-14T00:46:59;20.25;;;13.48;;
29382;SDS011;16365;51.598;7.668;2023-05-14T00:49:25;22.08;;;13.48;;
29382;SDS011;16365;51.598;7.668;2023-05-14T00:51:53;21.50;;;12.68;;
29382;SDS011;16365;51.598;7.668;2023-05-14T00:54:21;27.40;;;13.02;;
29382;SDS011;16365;51.598;7.668;2023-05-14T00:56:47;19.38;;;12.75;;
29382;SDS011;16365;51.598;7.668;2023-05-14T00:59:14;20.40;;;13.30;;
29382;SDS011;16365;51.598;7.668;2023-05-14T01:01:41;15.20;;;11.63;;
29382;SDS011;16365;51.598;7.668;2023-05-14T01:04:07;22.20;;;11.95;;
29382;SDS011;16365;51.598;7.668;2023-05-14T01:14:39;16.77;;;10.88;;
29382;SDS011;16365;51.598;7.668;2023-05-14T01:17:14;17.35;;;11.65;;
29382;SDS011;16365;51.598;7.668;2023-05-14T01:19:45;15.95;;;11.25;;
29382;SDS011;16365;51.598;7.668;2023-05-14T01:22:16;17.08;;;11.40;;
29382;SDS011;16365;51.598;7.668;2023-05-14T01:24:43;16.83;;;11.50;;
29382;SDS011;16365;51.598;7.668;2023-05-14T01:27:34;16.30;;;11.88;;
29382;SDS011;16365;51.598;7.668;2023-05-14T01:32:42;15.68;;;11.18;;
29382;SDS011;16365;51.598;7.668;2023-05-14T01:35:13;14.75;;;10.63;;
29382;SDS011;16365;51.598;7.668;2023-05-14T01:37:43;17.67;;;10.90;;
29382;SDS011;16365;51.598;7.668;2023-05-14T01:40:11;15.05;;;11.13;;
29382;SDS011;16365;51.598;7.668;2023-05-14T01:42:38;18.20;;;11.13;;
29382;SDS011;16365;51.598;7.668;2023-05-14T01:45:06;21.95;;;12.05;;
29382;SDS011;16365;51.598;7.668;2023-05-14T01:47:33;14.95;;;11.13;;
29382;SDS011;16365;51.598;7.668;2023-05-14T01:50:00;16.98;;;11.95;;
29382;SDS011;16365;51.598;7.668;2023-05-14T01:52:28;15.77;;;11.05;;
29382;SDS011;16365;51.598;7.668;2023-05-14T01:54:55;15.15;;;10.40;;
29382;SDS011;16365;51.598;7.668;2023-05-14T01:57:23;16.48;;;11.60;;
29382;SDS011;16365;51.598;7.668;2023-05-14T01:59:50;13.70;;;10.98;;
29382;SDS011;16365;51.598;7.668;2023-05-14T02:02:16;18.33;;;11.30;;
29382;SDS011;16365;51.598;7.668;2023-05-14T02:04:43;15.88;;;11.73;;
29382;SDS011;16365;51.598;7.668;2023-05-14T02:07:09;16.40;;;11.85;;
29382;SDS011;16365;51.598;7.668;2023-05-14T02:09:36;17.65;;;10.55;;
29382;SDS011;16365;51.598;7.668;2023-05-14T02:12:02;16.00;;;11.70;;
29382;SDS011;16365;51.598;7.668;2023-05-14T02:14:29;14.45;;;11.02;;
29382;SDS011;16365;51.598;7.668;2023-05-14T02:16:56;19.35;;;11.90;;
29382;SDS011;16365;51.598;7.668;2023-05-14T02:19:22;16.15;;;11.20;;
29382;SDS011;16365;51.598;7.668;2023-05-14T02:21:49;22.40;;;11.73;;
29382;SDS011;16365;51.598;7.668;2023-05-14T02:24:17;18.17;;;11.27;;
29382;SDS011;16365;51.598;7.668;2023-05-14T02:26:43;17.60;;;11.88;;
29382;SDS011;16365;51.598;7.668;2023-05-14T02:29:10;15.05;;;11.68;;
29382;SDS011;16365;51.598;7.668;2023-05-14T02:31:38;17.00;;;12.35;;
29382;SDS011;16365;51.598;7.668;2023-05-14T02:34:05;18.35;;;12.10;;
29382;SDS011;16365;51.598;7.668;2023-05-14T02:36:32;22.08;;;12.65;;
29382;SDS011;16365;51.598;7.668;2023-05-14T02:38:58;23.25;;;11.93;;
29382;SDS011;16365;51.598;7.668;2023-05-14T02:41:26;23.80;;;13.03;;
29382;SDS011;16365;51.598;7.668;2023-05-14T02:43:53;19.10;;;12.63;;
29382;SDS011;16365;51.598;7.668;2023-05-14T02:46:19;20.02;;;13.00;;
29382;SDS011;16365;51.598;7.668;2023-05-14T02:48:46;21.88;;;12.48;;
29382;SDS011;16365;51.598;7.668;2023-05-14T02:51:12;18.35;;;12.55;;
29382;SDS011;16365;51.598;7.668;2023-05-14T02:53:39;20.50;;;11.98;;
29382;SDS011;16365;51.598;7.668;2023-05-14T02:56:05;16.90;;;12.02;;
29382;SDS011;16365;51.598;7.668;2023-05-14T02:58:33;17.60;;;12.32;;
29382;SDS011;16365;51.598;7.668;2023-05-14T03:00:59;22.58;;;12.30;;
29382;SDS011;16365;51.598;7.668;2023-05-14T03:03:27;19.40;;;12.02;;
29382;SDS011;16365;51.598;7.668;2023-05-14T03:05:55;20.65;;;12.48;;
29382;SDS011;16365;51.598;7.668;2023-05-14T03:08:22;19.73;;;12.63;;
29382;SDS011;16365;51.598;7.668;2023-05-14T03:10:49;22.63;;;13.02;;
29382;SDS011;16365;51.598;7.668;2023-05-14T03:13:17;20.20;;;12.25;;
29382;SDS011;16365;51.598;7.668;2023-05-14T03:18:12;17.00;;;11.43;;
29382;SDS011;16365;51.598;7.668;2023-05-14T03:20:40;15.50;;;11.20;;
29382;SDS011;16365;51.598;7.668;2023-05-14T03:23:07;15.25;;;11.70;;
29382;SDS011;16365;51.598;7.668;2023-05-14T03:25:33;19.90;;;13.32;;
29382;SDS011;16365;51.598;7.668;2023-05-14T03:28:00;21.58;;;12.77;;
29382;SDS011;16365;51.598;7.668;2023-05-14T03:30:26;16.25;;;12.15;;
29382;SDS011;16365;51.598;7.668;2023-05-14T03:32:53;17.52;;;12.10;;
29382;SDS011;16365;51.598;7.668;2023-05-14T03:35:19;18.33;;;11.38;;
29382;SDS011;16365;51.598;7.668;2023-05-14T03:37:46;18.15;;;12.73;;
29382;SDS011;16365;51.598;7.668;2023-05-14T03:40:12;17.25;;;11.93;;
29382;SDS011;16365;51.598;7.668;2023-05-14T03:42:39;17.38;;;12.23;;
29382;SDS011;16365;51.598;7.668;2023-05-14T03:45:05;22.88;;;13.18;;
29382;SDS011;16365;51.598;7.668;2023-05-14T03:47:32;19.27;;;12.68;;
29382;SDS011;16365;51.598;7.668;2023-05-14T03:49:59;17.23;;;13.07;;
29382;SDS011;16365;51.598;7.668;2023-05-14T03:52:25;18.88;;;13.23;;
29382;SDS011;16365;51.598;7.668;2023-05-14T03:54:52;16.67;;;12.45;;
29382;SDS011;16365;51.598;7.668;2023-05-14T03:57:19;16.85;;;13.00;;
29382;SDS011;16365;51.598;7.668;2023-05-14T03:59:46;16.50;;;11.80;;
29382;SDS011;16365;51.598;7.668;2023-05-14T04:02:12;18.85;;;13.27;;
29382;SDS011;16365;51.598;7.668;2023-05-14T04:04:39;25.92;;;12.23;;
29382;SDS011;16365;51.598;7.668;2023-05-14T04:07:06;21.10;;;12.65;;
29382;SDS011;16365;51.598;7.668;2023-05-14T04:09:33;19.13;;;12.70;;
29382;SDS011;16365;51.598;7.668;2023-05-14T04:12:00;18.83;;;12.88;;
29382;SDS011;16365;51.598;7.668;2023-05-14T04:14:26;32.22;;;13.00;;
29382;SDS011;16365;51.598;7.668;2023-05-14T04:16:53;30.23;;;12.20;;
29382;SDS011;16365;51.598;7.668;2023-05-14T04:19:19;17.45;;;12.52;;
29382;SDS011;16365;51.598;7.668;2023-05-14T04:21:46;22.88;;;12.55;;
29382;SDS011;16365;51.598;7.668;2023-05-14T04:24:13;16.55;;;12.30;;
29382;SDS011;16365;51.598;7.668;2023-05-14T04:26:39;18.58;;;11.57;;
29382;SDS011;16365;51.598;7.668;2023-05-14T04:29:06;24.05;;;12.30;;
29382;SDS011;16365;51.598;7.668;2023-05-14T04:31:32;18.67;;;11.98;;
29382;SDS011;16365;51.598;7.668;2023-05-14T04:33:59;17.80;;;12.60;;
29382;SDS011;16365;51.598;7.668;2023-05-14T04:36:25;18.90;;;12.32;;
29382;SDS011;16365;51.598;7.668;2023-05-14T04:38:52;18.50;;;11.85;;
29382;SDS011;16365;51.598;7.668;2023-05-14T04:41:19;19.15;;;12.10;;
29382;SDS011;16365;51.598;7.668;2023-05-14T04:43:48;18.17;;;12.88;;
29382;SDS011;16365;51.598;7.668;2023-05-14T04:46:16;15.80;;;12.52;;
29382;SDS011;16365;51.598;7.668;2023-05-14T04:48:44;19.75;;;12.05;;
29382;SDS011;16365;51.598;7.668;2023-05-14T04:51:10;14.38;;;11.50;;
29382;SDS011;16365;51.598;7.668;2023-05-14T04:53:40;21.42;;;12.30;;
29382;SDS011;16365;51.598;7.668;2023-05-14T04:56:07;19.15;;;12.05;;
29382;SDS011;16365;51.598;7.668;2023-05-14T04:58:33;20.20;;;12.20;;
29382;SDS011;16365;51.598;7.668;2023-05-14T05:01:01;19.30;;;12.82;;
29382;SDS011;16365;51.598;7.668;2023-05-14T05:03:30;17.02;;;11.85;;
29382;SDS011;16365;51.598;7.668;2023-05-14T05:05:59;17.67;;;12.25;;
29382;SDS011;16365;51.598;7.668;2023-05-14T05:08:26;15.95;;;12.50;;
29382;SDS011;16365;51.598;7.668;2023-05-14T05:10:54;16.08;;;12.23;;
29382;SDS011;16365;51.598;7.668;2023-05-14T05:13:21;18.85;;;11.80;;
29382;SDS011;16365;51.598;7.668;2023-05-14T05:15:47;15.93;;;12.45;;
29382;SDS011;16365;51.598;7.668;2023-05-14T05:18:17;15.00;;;12.13;;
29382;SDS011;16365;51.598;7.668;2023-05-14T05:20:44;17.20;;;11.20;;
29382;SDS011;16365;51.598;7.668;2023-05-14T05:23:10;14.68;;;11.45;;
29382;SDS011;16365;51.598;7.668;2023-05-14T05:25:38;16.30;;;11.80;;
29382;SDS011;16365;51.598;7.668;2023-05-14T05:28:06;15.95;;;11.25;;
29382;SDS011;16365;51.598;7.668;2023-05-14T05:30:35;14.73;;;11.75;;
29382;SDS011;16365;51.598;7.668;2023-05-14T05:33:01;16.05;;;11.68;;
29382;SDS011;16365;51.598;7.668;2023-05-14T05:37:56;14.15;;;11.00;;
29382;SDS011;16365;51.598;7.668;2023-05-14T05:40:26;17.33;;;10.27;;
29382;SDS011;16365;51.598;7.668;2023-05-14T05:42:53;22.75;;;10.88;;
29382;SDS011;16365;51.598;7.668;2023-05-14T05:45:22;16.92;;;10.85;;
29382;SDS011;16365;51.598;7.668;2023-05-14T05:47:52;12.38;;;10.07;;
29382;SDS011;16365;51.598;7.668;2023-05-14T05:50:21;16.30;;;11.07;;
29382;SDS011;16365;51.598;7.668;2023-05-14T05:52:48;13.98;;;10.93;;
29382;SDS011;16365;51.598;7.668;2023-05-14T05:55:15;15.87;;;10.77;;
29382;SDS011;16365;51.598;7.668;2023-05-14T05:57:42;14.27;;;10.55;;
29382;SDS011;16365;51.598;7.668;2023-05-14T06:00:08;13.40;;;10.00;;
29382;SDS011;16365;51.598;7.668;2023-05-14T06:02:39;14.32;;;10.75;;
29382;SDS011;16365;51.598;7.668;2023-05-14T06:05:07;15.15;;;10.45;;
29382;SDS011;16365;51.598;7.668;2023-05-14T06:07:34;13.67;;;10.97;;
29382;SDS011;16365;51.598;7.668;2023-05-14T06:10:02;15.45;;;11.65;;
29382;SDS011;16365;51.598;7.668;2023-05-14T06:12:30;24.23;;;11.35;;
29382;SDS011;16365;51.598;7.668;2023-05-14T06:14:57;18.33;;;11.85;;
29382;SDS011;16365;51.598;7.668;2023-05-14T06:17:23;22.40;;;11.43;;
29382;SDS011;16365;51.598;7.668;2023-05-14T06:19:51;14.60;;;11.38;;
29382;SDS011;16365;51.598;7.668;2023-05-14T06:22:18;15.65;;;11.57;;
29382;SDS011;16365;51.598;7.668;2023-05-14T06:24:44;14.40;;;11.55;;
29382;SDS011;16365;51.598;7.668;2023-05-14T06:27:12;15.13;;;12.35;;
29382;SDS011;16365;51.598;7.668;2023-05-14T06:29:39;13.90;;;10.15;;
29382;SDS011;16365;51.598;7.668;2023-05-14T06:32:05;16.50;;;10.82;;
29382;SDS011;16365;51.598;7.668;2023-05-14T06:34:32;12.57;;;10.18;;
29382;SDS011;16365;51.598;7.668;2023-05-14T06:36:59;15.10;;;10.70;;
29382;SDS011;16365;51.598;7.668;2023-05-14T06:39:27;12.30;;;9.85;;
29382;SDS011;16365;51.598;7.668;2023-05-14T06:41:54;14.90;;;10.02;;
29382;SDS011;16365;51.598;7.668;2023-05-14T06:44:21;14.27;;;10.65;;
29382;SDS011;16365;51.598;7.668;2023-05-14T06:46:47;14.18;;;10.32;;
29382;SDS011;16365;51.598;7.668;2023-05-14T06:49:14;21.58;;;9.82;;
29382;SDS011;16365;51.598;7.668;2023-05-14T06:51:40;20.05;;;11.18;;
29382;SDS011;16365;51.598;7.668;2023-05-14T06:54:07;20.60;;;11.70;;
29382;SDS011;16365;51.598;7.668;2023-05-14T06:56:33;12.65;;;9.57;;
29382;SDS011;16365;51.598;7.668;2023-05-14T06:59:00;12.90;;;9.13;;
29382;SDS011;16365;51.598;7.668;2023-05-14T07:01:26;11.63;;;9.52;;
29382;SDS011;16365;51.598;7.668;2023-05-14T07:03:53;13.73;;;10.45;;
29382;SDS011;16365;51.598;7.668;2023-05-14T07:06:19;13.82;;;9.45;;
29382;SDS011;16365;51.598;7.668;2023-05-14T07:08:46;11.60;;;9.32;;
29382;SDS011;16365;51.598;7.668;2023-05-14T07:11:12;12.38;;;9.15;;
29382;SDS011;16365;51.598;7.668;2023-05-14T07:13:40;15.82;;;9.90;;
29382;SDS011;16365;51.598;7.668;2023-05-14T07:16:07;14.20;;;9.15;;
29382;SDS011;16365;51.598;7.668;2023-05-14T07:18:36;13.02;;;8.25;;
29382;SDS011;16365;51.598;7.668;2023-05-14T07:21:03;11.63;;;8.23;;
29382;SDS011;16365;51.598;7.668;2023-05-14T07:23:32;13.23;;;8.32;;
29382;SDS011;16365;51.598;7.668;2023-05-14T07:26:01;11.77;;;8.13;;
29382;SDS011;16365;51.598;7.668;2023-05-14T07:28:28;11.13;;;8.07;;
29382;SDS011;16365;51.598;7.668;2023-05-14T07:30:54;10.00;;;7.57;;
29382;SDS011;16365;51.598;7.668;2023-05-14T07:33:21;12.43;;;7.53;;
29382;SDS011;16365;51.598;7.668;2023-05-14T07:35:48;10.00;;;7.65;;
29382;SDS011;16365;51.598;7.668;2023-05-14T07:38:14;10.10;;;7.63;;
29382;SDS011;16365;51.598;7.668;2023-05-14T07:40:41;10.80;;;7.15;;
29382;SDS011;16365;51.598;7.668;2023-05-14T07:43:08;10.95;;;8.10;;
29382;SDS011;16365;51.598;7.668;2023-05-14T07:45:36;14.93;;;7.63;;
29382;SDS011;16365;51.598;7.668;2023-05-14T07:48:04;10.35;;;7.97;;
29382;SDS011;16365;51.598;7.668;2023-05-14T07:50:31;18.05;;;7.90;;
29382;SDS011;16365;51.598;7.668;2023-05-14T07:52:57;10.38;;;7.47;;
29382;SDS011;16365;51.598;7.668;2023-05-14T07:55:24;8.23;;;6.72;;
29382;SDS011;16365;51.598;7.668;2023-05-14T07:57:51;7.88;;;6.47;;
29382;SDS011;16365;51.598;7.668;2023-05-14T08:00:17;9.23;;;6.63;;
29382;SDS011;16365;51.598;7.668;2023-05-14T08:02:44;10.25;;;7.07;;
29382;SDS011;16365;51.598;7.668;2023-05-14T08:05:11;8.98;;;6.82;;
29382;SDS011;16365;51.598;7.668;2023-05-14T08:07:37;6.63;;;5.85;;
29382;SDS011;16365;51.598;7.668;2023-05-14T08:10:04;8.52;;;7.07;;
29382;SDS011;16365;51.598;7.668;2023-05-14T08:12:33;8.77;;;6.03;;
29382;SDS011;16365;51.598;7.668;2023-05-14T08:15:00;7.65;;;6.03;;
29382;SDS011;16365;51.598;7.668;2023-05-14T08:17:27;8.45;;;5.65;;
29382;SDS011;16365;51.598;7.668;2023-05-14T08:19:54;7.40;;;6.05;;
29382;SDS011;16365;51.598;7.668;2023-05-14T08:22:20;6.22;;;5.05;;
29382;SDS011;16365;51.598;7.668;2023-05-14T08:24:47;7.40;;;4.72;;
29382;SDS011;16365;51.598;7.668;2023-05-14T08:27:14;6.60;;;4.68;;
29382;SDS011;16365;51.598;7.668;2023-05-14T08:29:41;5.87;;;4.70;;
29382;SDS011;16365;51.598;7.668;2023-05-14T08:32:08;6.68;;;4.13;;
29382;SDS011;16365;51.598;7.668;2023-05-14T08:34:48;4.13;;;3.72;;
29382;SDS011;16365;51.598;7.668;2023-05-14T08:37:16;4.05;;;3.53;;
29382;SDS011;16365;51.598;7.668;2023-05-14T08:39:42;8.85;;;5.82;;
29382;SDS011;16365;51.598;7.668;2023-05-14T08:42:10;5.00;;;3.88;;
29382;SDS011;16365;51.598;7.668;2023-05-14T08:44:38;4.85;;;3.92;;
29382;SDS011;16365;51.598;7.668;2023-05-14T08:47:14;4.40;;;3.25;;
29382;SDS011;16365;51.598;7.668;2023-05-14T08:49:45;4.20;;;3.50;;
29382;SDS011;16365;51.598;7.668;2023-05-14T08:52:12;4.50;;;3.45;;
29382;SDS011;16365;51.598;7.668;2023-05-14T08:54:41;3.92;;;3.53;;
29382;SDS011;16365;51.598;7.668;2023-05-14T08:57:08;4.20;;;3.38;;
29382;SDS011;16365;51.598;7.668;2023-05-14T08:59:36;4.63;;;3.60;;
29382;SDS011;16365;51.598;7.668;2023-05-14T09:02:04;5.05;;;3.60;;
29382;SDS011;16365;51.598;7.668;2023-05-14T09:04:32;4.80;;;3.50;;
29382;SDS011;16365;51.598;7.668;2023-05-14T09:07:00;7.40;;;3.22;;
29382;SDS011;16365;51.598;7.668;2023-05-14T09:09:27;4.28;;;3.15;;
29382;SDS011;16365;51.598;7.668;2023-05-14T09:11:54;3.95;;;3.33;;
29382;SDS011;16365;51.598;7.668;2023-05-14T09:14:21;4.72;;;4.00;;
29382;SDS011;16365;51.598;7.668;2023-05-14T09:16:48;3.83;;;3.40;;
29382;SDS011;16365;51.598;7.668;2023-05-14T09:19:16;4.70;;;3.75;;
29382;SDS011;16365;51.598;7.668;2023-05-14T09:21:47;4.07;;;3.30;;
29382;SDS011;16365;51.598;7.668;2023-05-14T09:24:17;5.03;;;3.78;;
29382;SDS011;16365;51.598;7.668;2023-05-14T09:26:51;5.82;;;4.10;;
29382;SDS011;16365;51.598;7.668;2023-05-14T09:29:19;4.10;;;3.70;;
29382;SDS011;16365;51.598;7.668;2023-05-14T09:31:46;9.23;;;3.92;;
29382;SDS011;16365;51.598;7.668;2023-05-14T09:34:31;4.90;;;3.90;;
29382;SDS011;16365;51.598;7.668;2023-05-14T09:37:00;6.03;;;3.88;;
29382;SDS011;16365;51.598;7.668;2023-05-14T09:39:31;4.38;;;3.60;;
29382;SDS011;16365;51.598;7.668;2023-05-14T09:41:59;5.53;;;3.70;;
29382;SDS011;16365;51.598;7.668;2023-05-14T09:44:26;6.68;;;5.40;;
29382;SDS011;16365;51.598;7.668;2023-05-14T09:46:52;4.72;;;4.18;;
29382;SDS011;16365;51.598;7.668;2023-05-14T09:49:19;5.15;;;4.32;;
29382;SDS011;16365;51.598;7.668;2023-05-14T09:51:49;3.85;;;3.03;;
29382;SDS011;16365;51.598;7.668;2023-05-14T09:54:16;4.57;;;2.97;;
29382;SDS011;16365;51.598;7.668;2023-05-14T09:56:43;4.45;;;2.70;;
29382;SDS011;16365;51.598;7.668;2023-05-14T09:59:10;3.25;;;2.95;;
29382;SDS011;16365;51.598;7.668;2023-05-14T10:01:38;3.90;;;3.30;;
29382;SDS011;16365;51.598;7.668;2023-05-14T10:04:08;3.50;;;2.88;;
29382;SDS011;16365;51.598;7.668;2023-05-14T10:06:36;3.30;;;2.40;;
29382;SDS011;16365;51.598;7.668;2023-05-14T10:09:12;2.50;;;2.15;;
29382;SDS011;16365;51.598;7.668;2023-05-14T10:11:42;2.38;;;2.17;;
29382;SDS011;16365;51.598;7.668;2023-05-14T10:14:13;3.72;;;2.33;;
29382;SDS011;16365;51.598;7.668;2023-05-14T10:16:46;2.97;;;2.40;;
29382;SDS011;16365;51.598;7.668;2023-05-14T10:19:15;3.00;;;2.30;;
29382;SDS011;16365;51.598;7.668;2023-05-14T10:21:44;3.95;;;2.60;;
29382;SDS011;16365;51.598;7.668;2023-05-14T10:24:14;4.22;;;2.65;;
29382;SDS011;16365;51.598;7.668;2023-05-14T10:26:42;3.70;;;2.92;;
29382;SDS011;16365;51.598;7.668;2023-05-14T10:29:10;6.78;;;2.50;;
29382;SDS011;16365;51.598;7.668;2023-05-14T10:31:51;3.15;;;2.22;;
29382;SDS011;16365;51.598;7.668;2023-05-14T10:37:10;2.42;;;2.10;;
29382;SDS011;16365;51.598;7.668;2023-05-14T10:42:06;2.40;;;2.20;;
29382;SDS011;16365;51.598;7.668;2023-05-14T10:44:34;3.30;;;2.83;;
29382;SDS011;16365;51.598;7.668;2023-05-14T10:47:01;3.40;;;3.10;;
29382;SDS011;16365;51.598;7.668;2023-05-14T10:49:28;3.53;;;2.93;;
29382;SDS011;16365;51.598;7.668;2023-05-14T10:52:10;3.15;;;2.60;;
29382;SDS011;16365;51.598;7.668;2023-05-14T10:54:37;3.85;;;2.60;;
29382;SDS011;16365;51.598;7.668;2023-05-14T10:57:08;2.22;;;2.03;;
29382;SDS011;16365;51.598;7.668;2023-05-14T10:59:36;4.20;;;2.22;;
29382;SDS011;16365;51.598;7.668;2023-05-14T11:02:17;2.92;;;2.30;;
29382;SDS011;16365;51.598;7.668;2023-05-14T11:04:52;2.35;;;2.00;;
29382;SDS011;16365;51.598;7.668;2023-05-14T11:07:23;2.83;;;2.05;;
29382;SDS011;16365;51.598;7.668;2023-05-14T11:09:52;2.50;;;2.30;;
29382;SDS011;16365;51.598;7.668;2023-05-14T11:12:24;5.72;;;3.20;;
29382;SDS011;16365;51.598;7.668;2023-05-14T11:14:52;3.42;;;2.63;;
29382;SDS011;16365;51.598;7.668;2023-05-14T11:17:21;2.42;;;2.20;;
29382;SDS011;16365;51.598;7.668;2023-05-14T11:19:48;3.00;;;2.70;;
29382;SDS011;16365;51.598;7.668;2023-05-14T11:22:17;2.95;;;2.47;;
29382;SDS011;16365;51.598;7.668;2023-05-14T11:24:44;2.63;;;2.40;;
29382;SDS011;16365;51.598;7.668;2023-05-14T11:27:10;2.35;;;2.15;;
29382;SDS011;16365;51.598;7.668;2023-05-14T11:29:37;2.75;;;2.25;;
29382;SDS011;16365;51.598;7.668;2023-05-14T11:32:04;5.10;;;2.47;;
29382;SDS011;16365;51.598;7.668;2023-05-14T11:34:31;6.15;;;2.08;;
29382;SDS011;16365;51.598;7.668;2023-05-14T11:37:06;2.78;;;2.00;;
29382;SDS011;16365;51.598;7.668;2023-05-14T11:39:33;3.03;;;2.50;;
29382;SDS011;16365;51.598;7.668;2023-05-14T11:42:10;2.30;;;1.95;;
29382;SDS011;16365;51.598;7.668;2023-05-14T11:44:39;3.55;;;2.13;;
29382;SDS011;16365;51.598;7.668;2023-05-14T11:47:09;2.65;;;2.20;;
29382;SDS011;16365;51.598;7.668;2023-05-14T11:49:36;2.65;;;2.20;;
29382;SDS011;16365;51.598;7.668;2023-05-14T11:52:04;2.65;;;2.08;;
29382;SDS011;16365;51.598;7.668;2023-05-14T11:56:59;2.17;;;1.98;;
29382;SDS011;16365;51.598;7.668;2023-05-14T11:59:28;3.30;;;2.10;;
29382;SDS011;16365;51.598;7.668;2023-05-14T12:02:00;3.05;;;2.03;;
29382;SDS011;16365;51.598;7.668;2023-05-14T12:04:30;2.90;;;2.08;;
29382;SDS011;16365;51.598;7.668;2023-05-14T12:06:58;3.33;;;2.17;;
29382;SDS011;16365;51.598;7.668;2023-05-14T12:11:51;2.25;;;2.00;;
29382;SDS011;16365;51.598;7.668;2023-05-14T12:14:19;2.00;;;1.80;;
29382;SDS011;16365;51.598;7.668;2023-05-14T12:16:47;4.63;;;2.00;;
29382;SDS011;16365;51.598;7.668;2023-05-14T12:19:15;2.90;;;2.40;;
29382;SDS011;16365;51.598;7.668;2023-05-14T12:21:43;5.57;;;2.20;;
29382;SDS011;16365;51.598;7.668;2023-05-14T12:24:14;2.15;;;1.95;;
29382;SDS011;16365;51.598;7.668;2023-05-14T12:26:45;3.45;;;1.70;;
29382;SDS011;16365;51.598;7.668;2023-05-14T12:29:14;2.60;;;2.05;;
29382;SDS011;16365;51.598;7.668;2023-05-14T12:31:48;3.42;;;2.35;;
29382;SDS011;16365;51.598;7.668;2023-05-14T12:34:15;2.20;;;1.80;;
29382;SDS011;16365;51.598;7.668;2023-05-14T12:36:42;2.63;;;2.10;;
29382;SDS011;16365;51.598;7.668;2023-05-14T12:39:09;4.40;;;2.10;;
29382;SDS011;16365;51.598;7.668;2023-05-14T12:41:37;2.63;;;1.63;;
29382;SDS011;16365;51.598;7.668;2023-05-14T12:44:03;2.10;;;1.75;;
29382;SDS011;16365;51.598;7.668;2023-05-14T12:46:31;2.30;;;1.80;;
29382;SDS011;16365;51.598;7.668;2023-05-14T12:48:59;2.58;;;1.70;;
29382;SDS011;16365;51.598;7.668;2023-05-14T12:51:25;2.53;;;1.80;;
29382;SDS011;16365;51.598;7.668;2023-05-14T12:53:52;4.47;;;1.88;;
29382;SDS011;16365;51.598;7.668;2023-05-14T12:56:19;1.83;;;1.67;;
29382;SDS011;16365;51.598;7.668;2023-05-14T12:58:46;2.75;;;1.55;;
29382;SDS011;16365;51.598;7.668;2023-05-14T13:01:13;2.90;;;1.73;;
29382;SDS011;16365;51.598;7.668;2023-05-14T13:03:39;2.22;;;2.03;;
29382;SDS011;16365;51.598;7.668;2023-05-14T13:06:06;1.95;;;1.63;;
29382;SDS011;16365;51.598;7.668;2023-05-14T13:08:33;1.92;;;1.60;;
29382;SDS011;16365;51.598;7.668;2023-05-14T13:11:00;2.33;;;1.90;;
29382;SDS011;16365;51.598;7.668;2023-05-14T13:13:27;1.75;;;1.50;;
29382;SDS011;16365;51.598;7.668;2023-05-14T13:15:53;1.73;;;1.63;;
29382;SDS011;16365;51.598;7.668;2023-05-14T13:18:22;2.10;;;1.85;;
29382;SDS011;16365;51.598;7.668;2023-05-14T13:20:51;2.30;;;1.80;;
29382;SDS011;16365;51.598;7.668;2023-05-14T13:23:17;5.03;;;1.70;;
29382;SDS011;16365;51.598;7.668;2023-05-14T13:25:44;2.25;;;1.80;;
29382;SDS011;16365;51.598;7.668;2023-05-14T13:30:38;2.88;;;1.30;;
29382;SDS011;16365;51.598;7.668;2023-05-14T13:33:05;1.95;;;1.73;;
29382;SDS011;16365;51.598;7.668;2023-05-14T13:35:31;1.92;;;1.38;;
29382;SDS011;16365;51.598;7.668;2023-05-14T13:37:59;1.98;;;1.77;;
29382;SDS011;16365;51.598;7.668;2023-05-14T13:40:26;4.50;;;2.08;;
29382;SDS011;16365;51.598;7.668;2023-05-14T13:42:52;3.05;;;2.03;;
29382;SDS011;16365;51.598;7.668;2023-05-14T13:45:19;2.50;;;1.50;;
29382;SDS011;16365;51.598;7.668;2023-05-14T13:47:45;2.17;;;1.83;;
29382;SDS011;16365;51.598;7.668;2023-05-14T13:50:13;1.73;;;1.60;;
29382;SDS011;16365;51.598;7.668;2023-05-14T13:52:40;2.25;;;1.45;;
29382;SDS011;16365;51.598;7.668;2023-05-14T13:55:06;2.80;;;1.48;;
29382;SDS011;16365;51.598;7.668;2023-05-14T13:57:33;2.50;;;1.70;;
29382;SDS011;16365;51.598;7.668;2023-05-14T13:59:59;1.50;;;1.40;;
29382;SDS011;16365;51.598;7.668;2023-05-14T14:02:26;1.98;;;1.65;;
29382;SDS011;16365;51.598;7.668;2023-05-14T14:04:52;2.90;;;1.52;;
29382;SDS011;16365;51.598;7.668;2023-05-14T14:07:20;1.40;;;1.30;;
29382;SDS011;16365;51.598;7.668;2023-05-14T14:09:47;2.17;;;1.63;;
29382;SDS011;16365;51.598;7.668;2023-05-14T14:12:13;1.33;;;1.23;;
29382;SDS011;16365;51.598;7.668;2023-05-14T14:14:40;2.25;;;1.58;;
29382;SDS011;16365;51.598;7.668;2023-05-14T14:17:06;1.50;;;1.40;;
29382;SDS011;16365;51.598;7.668;2023-05-14T14:19:34;2.22;;;1.70;;
29382;SDS011;16365;51.598;7.668;2023-05-14T14:22:00;1.83;;;1.73;;
29382;SDS011;16365;51.598;7.668;2023-05-14T14:24:27;2.35;;;1.60;;
29382;SDS011;16365;51.598;7.668;2023-05-14T14:26:53;1.50;;;1.40;;
29382;SDS011;16365;51.598;7.668;2023-05-14T14:29:20;3.50;;;1.52;;
29382;SDS011;16365;51.598;7.668;2023-05-14T14:31:48;2.08;;;1.55;;
29382;SDS011;16365;51.598;7.668;2023-05-14T14:34:15;1.60;;;1.42;;
29382;SDS011;16365;51.598;7.668;2023-05-14T14:36:41;1.60;;;1.50;;
29382;SDS011;16365;51.598;7.668;2023-05-14T14:39:08;1.88;;;1.48;;
29382;SDS011;16365;51.598;7.668;2023-05-14T14:41:34;1.92;;;1.73;;
29382;SDS011;16365;51.598;7.668;2023-05-14T14:44:01;2.08;;;1.77;;
29382;SDS011;16365;51.598;7.668;2023-05-14T14:46:27;2.35;;;1.70;;
29382;SDS011;16365;51.598;7.668;2023-05-14T14:48:54;2.50;;;1.70;;
29382;SDS011;16365;51.598;7.668;2023-05-14T14:51:20;1.63;;;1.30;;
29382;SDS011;16365;51.598;7.668;2023-05-14T14:53:47;1.85;;;1.50;;
29382;SDS011;16365;51.598;7.668;2023-05-14T14:56:14;2.20;;;2.00;;
29382;SDS011;16365;51.598;7.668;2023-05-14T14:58:40;2.35;;;1.73;;
29382;SDS011;16365;51.598;7.668;2023-05-14T15:01:07;2.40;;;1.95;;
29382;SDS011;16365;51.598;7.668;2023-05-14T15:03:33;1.88;;;1.65;;
29382;SDS011;16365;51.598;7.668;2023-05-14T15:06:01;2.37;;;1.90;;